Time;durP1;ratioP1;P1;durP2;ratioP2;P2;SDS_P1;SDS_P2;PMS_P1;PMS_P2;Temp;Humidity;BMP_temperature;BMP_pressure;BME280_temperature;BME280_humidity;BME280_pressure;Samples;Min_cycle;Max_cycle;Signal;HPM_P1;HPM_P2
2022/10/20 00:01:37;;;;;;;12.68;7.65;;;;;;;7.02;100.00;67554.53;4916637;29;20059;-80
2022/10/20 00:04:02;;;;;;;14.10;7.20;;;;;;;;;;4917155;29;20048;-81
2022/10/20 00:06:29;;;;;;;11.52;7.35;;;;;;;;;;4916843;29;20040;-79
2022/10/20 00:08:57;;;;;;;16.38;7.35;;;;;;;6.97;100.00;67549.44;4917047;29;20504;-80
2022/10/20 00:11:23;;;;;;;11.70;7.07;;;;;;;6.99;100.00;67554.34;4917334;29;20389;-80
2022/10/20 00:13:51;;;;;;;14.20;6.95;;;;;;;6.97;100.00;67544.13;4918652;29;20344;-80
2022/10/20 00:16:17;;;;;;;11.35;7.38;;;;;;;6.98;100.00;67544.69;4916709;29;20086;-81
2022/10/20 00:18:43;;;;;;;15.32;7.68;;;;;;;6.97;100.00;67548.88;4918326;29;20048;-80
2022/10/20 00:21:13;;;;;;;10.82;6.85;;;;;;;6.93;100.00;67544.34;4917845;29;20044;-80
2022/10/20 00:23:38;;;;;;;11.32;6.95;;;;;;;6.92;100.00;67543.78;4919718;29;20047;-80
2022/10/20 00:26:11;;;;;;;10.88;7.38;;;;;;;6.93;100.00;67544.34;4919307;29;20048;-81
2022/10/20 00:28:36;;;;;;;13.15;7.47;;;;;;;6.89;100.00;67540.38;4917304;29;20526;-81
2022/10/20 00:31:03;;;;;;;10.68;6.60;;;;;;;6.85;100.00;67535.88;4918695;29;20036;-80
2022/10/20 00:33:28;;;;;;;11.40;7.55;;;;;;;6.84;100.00;67528.88;4918823;29;20137;-79
2022/10/20 00:35:53;;;;;;;13.18;7.07;;;;;;;6.88;100.00;67533.97;4919858;29;20134;-81
2022/10/20 00:38:19;;;;;;;11.27;7.53;;;;;;;6.88;100.00;67533.41;4918425;29;20050;-80
2022/10/20 00:40:44;;;;;;;12.52;7.85;;;;;;;6.87;100.00;67538.09;4919930;29;20047;-80
2022/10/20 00:43:11;;;;;;;11.45;7.22;;;;;;;;;;4917847;29;20044;-81
2022/10/20 00:45:37;;;;;;;12.00;7.30;;;;;;;6.78;100.00;67528.50;4919465;29;20058;-80
2022/10/20 00:48:11;;;;;;;10.25;6.40;;;;;;;6.76;100.00;67525.66;4919175;29;20048;-81
2022/10/20 00:50:41;;;;;;;13.43;7.55;;;;;;;6.78;100.00;67533.22;4919532;29;20056;-80
2022/10/20 00:53:07;;;;;;;10.40;7.45;;;;;;;6.70;100.00;67519.47;4918744;29;20043;-80
2022/10/20 00:55:36;;;;;;;10.07;6.78;;;;;;;6.76;100.00;67525.66;4919865;29;20084;-80
2022/10/20 00:58:03;;;;;;;10.85;6.97;;;;;;;6.77;100.00;67526.81;4918547;29;20320;-81
2022/10/20 01:00:29;;;;;;;11.32;6.97;;;;;;;;;;4916028;29;20139;-80
2022/10/20 01:02:56;;;;;;;9.48;6.60;;;;;;;;;;4916511;29;20052;-81
2022/10/20 01:05:22;;;;;;;12.18;7.30;;;;;;;;;;4917110;29;20072;-80
2022/10/20 01:07:47;;;;;;;12.73;7.72;;;;;;;6.78;100.00;67530.56;4914614;29;20091;-79
2022/10/20 01:10:13;;;;;;;12.13;7.28;;;;;;;;;;4918009;29;21573;-80
2022/10/20 01:12:38;;;;;;;9.85;7.45;;;;;;;;;;4918544;29;20082;-80
2022/10/20 01:15:23;;;;;;;11.07;7.30;;;;;;;;;;4918185;29;20480;-80
2022/10/20 01:17:54;;;;;;;12.48;6.97;;;;;;;6.77;100.00;67526.81;4918122;29;20108;-79
2022/10/20 01:20:34;;;;;;;12.43;6.65;;;;;;;6.77;100.00;67526.81;4917816;29;20035;-80
2022/10/20 01:23:33;;;;;;;11.20;7.05;;;;;;;6.76;100.00;67526.25;4921163;29;20391;-80
2022/10/20 01:26:13;;;;;;;9.10;6.80;;;;;;;6.70;100.00;67518.88;4921594;29;20035;-81
2022/10/20 01:28:42;;;;;;;12.73;6.70;;;;;;;6.65;100.00;67513.81;4915954;29;20056;-80
2022/10/20 01:31:24;;;;;;;11.32;7.43;;;;;;;;;;4914686;29;20044;-80
2022/10/20 01:33:57;;;;;;;10.15;6.78;;;;;;;6.70;100.00;67513.59;4914386;29;20055;-80
2022/10/20 01:36:51;;;;;;;12.88;7.15;;;;;;;;;;4911503;29;20044;-80
2022/10/20 01:39:24;;;;;;;10.68;7.65;;;;;;;6.68;100.00;67516.63;4861132;29;20125;-80
2022/10/20 01:41:54;;;;;;;13.27;6.72;;;;;;;;;;4915846;29;20123;-80
2022/10/20 01:44:25;;;;;;;13.90;7.45;;;;;;;6.68;100.00;67517.19;4914701;29;20456;-80
2022/10/20 01:46:52;;;;;;;11.65;7.15;;;;;;;6.62;100.00;67510.41;4916254;29;20372;-81
2022/10/20 01:49:18;;;;;;;11.73;6.40;;;;;;;;;;4913822;29;20052;-80
2022/10/20 01:51:43;;;;;;;10.35;7.07;;;;;;;;;;4914870;29;20645;-81
2022/10/20 01:54:37;;;;;;;8.65;6.10;;;;;;;;;;4913258;29;20128;-80
2022/10/20 01:57:25;;;;;;;11.32;7.47;;;;;;;;;;4901302;29;20050;-81
2022/10/20 01:59:59;;;;;;;10.82;7.13;;;;;;;;;;4912496;29;20048;-80
2022/10/20 02:02:42;;;;;;;9.40;7.10;;;;;;;;;;4908724;29;20083;-81
2022/10/20 02:05:20;;;;;;;12.32;7.47;;;;;;;6.59;100.00;67506.44;4908062;29;20048;-81
2022/10/20 02:07:46;;;;;;;9.88;7.25;;;;;;;6.56;100.00;67503.63;4909121;29;20055;-80
2022/10/20 02:10:14;;;;;;;12.30;7.97;;;;;;;;;;4914416;29;20048;-80
2022/10/20 02:12:40;;;;;;;12.43;7.17;;;;;;;;;;4913668;29;20326;-80
2022/10/20 02:15:10;;;;;;;10.10;7.18;;;;;;;6.53;100.00;67500.81;4913970;29;20292;-81
2022/10/20 02:17:39;;;;;;;11.90;7.32;;;;;;;6.50;100.00;67499.47;4914071;29;20124;-80
2022/10/20 02:20:05;;;;;;;11.40;7.60;;;;;;;;;;4916082;29;20051;-81
2022/10/20 02:22:31;;;;;;;13.05;7.13;;;;;;;6.47;100.00;67494.00;4916621;29;20492;-80
2022/10/20 02:24:58;;;;;;;12.15;7.95;;;;;;;6.49;100.00;67496.25;4915728;29;20066;-80
2022/10/20 02:27:31;;;;;;;13.95;7.53;;;;;;;6.49;100.00;67496.25;4915112;29;20044;-79
2022/10/20 02:30:01;;;;;;;13.57;7.40;;;;;;;6.50;100.00;67497.41;4916606;29;20103;-81
2022/10/20 02:32:28;;;;;;;11.63;6.78;;;;;;;6.49;100.00;67498.34;4916676;29;20044;-80
2022/10/20 02:34:53;;;;;;;12.48;7.32;;;;;;;;;;4916384;29;20036;-81
2022/10/20 02:37:19;;;;;;;11.95;8.23;;;;;;;;;;4916614;29;20441;-80
2022/10/20 02:39:44;;;;;;;17.17;8.15;;;;;;;;;;4916472;29;20048;-80
2022/10/20 02:42:11;;;;;;;12.50;8.20;;;;;;;6.51;100.00;67492.69;4909708;29;20040;-80
2022/10/20 02:44:36;;;;;;;11.88;7.10;;;;;;;;;;4898345;29;20048;-80
2022/10/20 02:47:01;;;;;;;11.60;7.93;;;;;;;;;;4906456;29;20047;-80
2022/10/20 02:49:26;;;;;;;11.45;7.80;;;;;;;;;;4916346;29;20131;-80
2022/10/20 02:51:52;;;;;;;13.15;8.45;;;;;;;;;;4916924;29;20044;-80
2022/10/20 02:54:17;;;;;;;11.95;6.93;;;;;;;;;;4915905;29;20044;-80
2022/10/20 02:56:42;;;;;;;11.50;8.15;;;;;;;;;;4914151;29;20084;-79
2022/10/20 02:59:11;;;;;;;14.25;7.90;;;;;;;;;;4915053;29;20040;-80
2022/10/20 03:01:36;;;;;;;13.15;7.95;;;;;;;;;;4914205;29;20052;-80
2022/10/20 03:04:02;;;;;;;14.68;8.63;;;;;;;;;;4914639;29;20369;-79
2022/10/20 03:06:27;;;;;;;13.48;7.70;;;;;;;6.47;100.00;67488.72;4916072;29;20132;-80
2022/10/20 03:08:52;;;;;;;12.73;8.82;;;;;;;6.50;100.00;67496.81;4913529;29;20036;-81
2022/10/20 03:11:18;;;;;;;17.40;8.43;;;;;;;6.48;100.00;67495.13;4913173;29;20393;-80
2022/10/20 03:13:43;;;;;;;13.02;8.30;;;;;;;;;;4914606;29;20115;-80
2022/10/20 03:16:08;;;;;;;14.20;8.85;;;;;;;6.51;100.00;67493.25;4916215;29;20130;-80
2022/10/20 03:18:34;;;;;;;12.93;8.52;;;;;;;;;;4914725;29;20490;-80
2022/10/20 03:20:59;;;;;;;13.65;8.93;;;;;;;6.51;100.00;67493.25;4915085;29;20123;-81
2022/10/20 03:23:24;;;;;;;14.27;7.85;;;;;;;6.50;100.00;67496.81;4913262;29;20519;-80
2022/10/20 03:25:49;;;;;;;18.20;9.18;;;;;;;;;;4914506;29;20044;-79
2022/10/20 03:28:15;;;;;;;13.07;9.18;;;;;;;6.51;100.00;67497.97;4915522;29;20070;-81
2022/10/20 03:30:40;;;;;;;16.38;8.77;;;;;;;;;;4913634;29;20048;-80
2022/10/20 03:33:06;;;;;;;12.20;8.77;;;;;;;6.49;100.00;67496.25;4913706;29;20048;-79
2022/10/20 03:35:31;;;;;;;14.50;8.45;;;;;;;6.50;100.00;67496.81;4912083;29;20459;-80
2022/10/20 03:37:57;;;;;;;14.02;9.10;;;;;;;6.52;100.00;67493.81;4913583;29;20044;-80
2022/10/20 03:40:22;;;;;;;14.07;9.00;;;;;;;6.54;100.00;67504.56;4911388;29;20449;-81
2022/10/20 03:42:48;;;;;;;16.23;10.90;;;;;;;6.59;100.00;67507.03;4915392;29;20040;-80
2022/10/20 09:44:24;;;;;;;11.95;9.60;;;;;;;11.42;95.55;68036.66;5736365;23;20071;-82
2022/10/20 09:46:53;;;;;;;12.75;9.45;;;;;;;11.55;95.78;68050.84;4933723;29;20083;-82
2022/10/20 09:49:26;;;;;;;12.57;9.70;;;;;;;11.69;95.05;68064.09;4928116;28;20043;-82
2022/10/20 09:51:52;;;;;;;14.35;8.85;;;;;;;11.79;94.56;68078.09;4931562;29;20051;-82
2022/10/20 09:54:24;;;;;;;13.20;9.73;;;;;;;11.85;93.91;68084.34;4939507;23;20431;-82
2022/10/20 09:56:51;;;;;;;13.93;8.98;;;;;;;11.93;93.87;68093.47;4932098;29;20048;-82
2022/10/20 09:59:24;;;;;;;11.77;9.20;;;;;;;12.05;93.67;68103.84;4927846;28;20043;-82
2022/10/20 10:01:58;;;;;;;11.70;9.05;;;;;;;;;;4926704;29;20044;-83
2022/10/20 10:04:29;;;;;;;14.98;9.55;;;;;;;12.01;92.91;68102.00;4924876;29;20403;-83
2022/10/20 10:06:54;;;;;;;12.23;9.18;;;;;;;11.99;93.25;68100.28;4911065;29;20069;-82
2022/10/20 10:09:33;;;;;;;12.70;10.30;;;;;;;11.97;93.51;68098.03;4914303;29;20040;-84
2022/10/20 10:12:14;;;;;;;13.13;9.52;;;;;;;;;;4914179;29;20143;-83
2022/10/20 10:15:02;;;;;;;14.88;9.65;;;;;;;11.98;95.11;68098.59;4912374;29;20120;-83
2022/10/20 10:17:39;;;;;;;12.52;9.55;;;;;;;12.01;95.68;68099.88;4913388;29;20047;-83
2022/10/20 10:20:25;;;;;;;12.52;10.48;;;;;;;;;;4914149;29;20548;-83
2022/10/20 10:22:50;;;;;;;16.67;10.38;;;;;;;12.05;95.35;68106.53;4913532;29;20416;-83
2022/10/20 10:25:26;;;;;;;13.07;9.63;;;;;;;;;;4912223;29;20044;-83
2022/10/20 10:28:18;;;;;;;12.10;10.45;;;;;;;12.08;95.95;68107.25;4914537;29;20076;-82
2022/10/20 10:30:44;;;;;;;13.27;9.68;;;;;;;;;;4926118;29;20058;-83
2022/10/20 10:33:27;;;;;;;13.15;8.98;;;;;;;12.09;96.68;68111.09;4913984;29;20127;-84
2022/10/20 10:35:53;;;;;;;12.60;9.85;;;;;;;12.08;97.01;68110.50;4914449;29;20040;-83
2022/10/20 10:38:19;;;;;;;13.38;9.77;;;;;;;12.10;97.15;68117.53;4912141;29;20028;-83
2022/10/20 10:40:44;;;;;;;14.07;11.70;;;;;;;12.13;97.59;68115.63;4913492;29;20107;-83
2022/10/20 10:43:28;;;;;;;13.20;10.13;;;;;;;;;;4911559;29;20127;-82
2022/10/20 10:46:25;;;;;;;15.27;11.48;;;;;;;12.15;98.18;68123.22;4911745;29;20050;-83
2022/10/20 10:48:53;;;;;;;13.40;9.60;;;;;;;12.15;97.88;68123.22;4923775;29;20356;-83
2022/10/20 10:51:22;;;;;;;14.33;10.70;;;;;;;;;;4913413;29;20107;-83
2022/10/20 10:53:47;;;;;;;14.88;11.05;;;;;;;12.20;98.63;68128.91;4909930;29;20067;-83
2022/10/20 10:56:34;;;;;;;13.80;10.45;;;;;;;12.21;98.74;68124.72;4915153;29;20047;-83
2022/10/20 10:59:02;;;;;;;16.42;11.20;;;;;;;12.24;98.86;68125.44;4924653;29;20052;-81
2022/10/20 11:01:43;;;;;;;15.53;10.93;;;;;;;;;;4925313;29;20040;-81
2022/10/20 11:04:53;;;;;;;15.45;11.65;;;;;;;12.36;99.81;68139.06;4910802;23;20040;-82
2022/10/20 11:07:35;;;;;;;13.73;11.07;;;;;;;;;;4895069;29;20053;-81
2022/10/20 11:10:03;;;;;;;15.80;11.73;;;;;;;12.39;99.74;68139.81;4926976;29;20048;-82
2022/10/20 11:12:31;;;;;;;13.18;10.85;;;;;;;;;;4927845;29;20070;-82
2022/10/20 11:14:59;;;;;;;14.13;11.25;;;;;;;12.44;99.66;68147.03;4932117;23;20558;-82
2022/10/20 11:17:45;;;;;;;15.20;11.88;;;;;;;12.45;99.55;68156.19;4930336;29;20147;-82
2022/10/20 11:20:23;;;;;;;15.95;11.00;;;;;;;12.44;99.29;68149.72;4925735;29;20039;-82
2022/10/20 11:22:54;;;;;;;14.80;11.55;;;;;;;12.46;100.00;68151.97;4913822;29;20055;-82
2022/10/20 11:26:04;;;;;;;14.52;10.75;;;;;;;12.46;100.00;68151.97;4953028;23;20043;-83
2022/10/20 11:28:51;;;;;;;18.98;12.00;;;;;;;12.48;100.00;68148.91;4893717;29;20055;-83
2022/10/20 11:31:28;;;;;;;17.00;11.57;;;;;;;12.48;100.00;68151.59;4893733;29;20084;-84
2022/10/20 11:34:04;;;;;;;14.15;11.18;;;;;;;12.48;100.00;68152.16;4913512;29;20158;-84
2022/10/20 11:36:40;;;;;;;15.63;12.27;;;;;;;12.52;100.00;68159.38;4909168;29;20040;-84
2022/10/20 11:39:26;;;;;;;16.23;11.20;;;;;;;12.53;100.00;68160.50;4912929;29;20046;-84
2022/10/20 11:41:55;;;;;;;18.42;11.90;;;;;;;;;;4935793;28;20247;-84
2022/10/20 11:44:39;;;;;;;16.57;11.97;;;;;;;12.57;100.00;68164.47;4925601;29;20112;-84
2022/10/20 11:47:23;;;;;;;15.00;10.45;;;;;;;12.58;100.00;68166.19;4914512;29;20048;-84
2022/10/20 11:49:49;;;;;;;14.95;11.55;;;;;;;12.60;100.00;68165.81;4903670;29;20052;-84
2022/10/20 11:52:39;;;;;;;15.80;11.20;;;;;;;12.64;100.00;68172.44;4909807;29;20044;-83
2022/10/20 11:55:26;;;;;;;15.98;11.70;;;;;;;12.65;100.00;68173.56;4900175;29;20052;-84
2022/10/20 11:58:13;;;;;;;17.08;11.95;;;;;;;12.62;100.00;68168.06;4922470;29;20044;-84
2022/10/20 12:01:13;;;;;;;16.70;12.13;;;;;;;12.60;100.00;68168.47;4920476;29;20136;-83
2022/10/20 12:03:47;;;;;;;17.67;11.45;;;;;;;12.60;100.00;68165.81;4918887;29;20044;-84
2022/10/20 12:06:37;;;;;;;16.38;12.13;;;;;;;12.58;100.00;68166.19;4906341;29;20050;-84
2022/10/20 12:09:17;;;;;;;17.00;13.52;;;;;;;;;;4906842;29;20083;-83
2022/10/20 12:12:07;;;;;;;20.27;13.73;;;;;;;12.57;100.00;68164.47;4918173;29;20059;-83
2022/10/20 12:14:38;;;;;;;17.98;12.55;;;;;;;12.56;100.00;68163.34;4911115;29;20072;-83
2022/10/20 12:17:12;;;;;;;14.93;12.75;;;;;;;12.54;100.00;68161.06;4911503;29;20047;-83
2022/10/20 12:19:38;;;;;;;17.15;13.00;;;;;;;12.56;100.00;68161.25;4914320;29;20183;-83
2022/10/20 12:22:13;;;;;;;20.02;13.15;;;;;;;12.54;100.00;68166.97;4912914;29;20102;-82
2022/10/20 12:24:41;;;;;;;17.65;13.13;;;;;;;12.58;100.00;68160.28;4920643;29;20052;-84
2022/10/20 12:27:09;;;;;;;20.48;13.30;;;;;;;12.56;100.00;68163.91;4911536;29;20115;-83
2022/10/20 12:29:34;;;;;;;18.05;13.80;;;;;;;12.57;100.00;68164.47;4909236;29;20044;-84
2022/10/20 12:32:20;;;;;;;21.00;14.38;;;;;;;;;;4924625;29;20043;-83
2022/10/20 12:34:46;;;;;;;19.27;13.68;;;;;;;12.53;100.00;68159.94;4921382;29;20051;-84
2022/10/20 12:37:19;;;;;;;19.00;13.43;;;;;;;12.49;100.00;68152.72;4911752;29;20729;-83
2022/10/20 12:39:46;;;;;;;21.63;15.23;;;;;;;12.48;100.00;68154.81;4911293;29;20070;-83
2022/10/20 12:42:22;;;;;;;23.35;13.95;;;;;;;12.44;100.00;68149.72;4911664;29;20048;-84
2022/10/20 12:44:48;;;;;;;20.48;15.07;;;;;;;12.41;100.00;68142.09;4925408;29;20048;-83
2022/10/20 12:47:24;;;;;;;18.90;13.73;;;;;;;12.44;100.00;68150.28;4911765;29;20407;-84
2022/10/20 12:50:00;;;;;;;22.80;15.77;;;;;;;12.41;100.00;68152.22;4912404;29;20075;-84
2022/10/20 12:52:32;;;;;;;23.73;16.77;;;;;;;12.40;100.00;68143.63;4912434;29;20048;-83
2022/10/20 12:55:03;;;;;;;23.15;15.88;;;;;;;;;;4913163;29;20131;-83
2022/10/20 12:57:34;;;;;;;23.50;17.77;;;;;;;12.37;100.00;68142.91;4913494;29;20040;-82
2022/10/20 12:59:59;;;;;;;26.50;16.65;;;;;;;12.35;100.00;68140.63;4912632;29;20051;-82
2022/10/20 13:02:24;;;;;;;24.02;17.52;;;;;;;;;;4911593;29;20042;-84
2022/10/20 13:04:56;;;;;;;27.87;19.10;;;;;;;;;;4912684;29;20389;-84
2022/10/20 13:07:46;;;;;;;24.75;17.40;;;;;;;12.33;100.00;68138.34;4908751;29;20295;-83
2022/10/20 13:10:30;;;;;;;25.58;19.23;;;;;;;;;;4906387;29;20052;-84
2022/10/20 13:13:01;;;;;;;27.77;20.52;;;;;;;12.29;100.00;68139.16;4921359;29;20079;-84
2022/10/20 13:15:33;;;;;;;28.17;19.58;;;;;;;12.28;100.00;68132.09;4905740;29;20047;-83
2022/10/20 13:18:21;;;;;;;33.35;21.63;;;;;;;12.26;100.00;68129.84;4909082;29;20709;-84
2022/10/20 13:20:56;;;;;;;28.90;20.42;;;;;;;;;;4922928;29;20150;-84
2022/10/20 13:23:27;;;;;;;31.63;23.23;;;;;;;12.27;100.00;68131.53;4896544;29;20045;-84
2022/10/20 13:25:58;;;;;;;32.20;23.83;;;;;;;12.29;100.00;68131.13;4913643;29;20040;-83
2022/10/20 13:28:26;;;;;;;34.95;22.13;;;;;;;12.31;100.00;68135.50;4927173;29;20044;-84
2022/10/20 13:31:07;;;;;;;36.42;24.90;;;;;;;12.36;100.00;68141.19;4912838;29;20044;-83
2022/10/20 13:33:45;;;;;;;38.47;26.10;;;;;;;12.38;100.00;68140.78;4911432;29;20553;-83
2022/10/20 13:36:12;;;;;;;36.05;24.05;;;;;;;12.41;100.00;68147.44;4913461;29;20043;-83
2022/10/20 13:39:12;;;;;;;35.60;23.17;;;;;;;12.42;100.00;68148.00;4915146;29;20071;-83
2022/10/20 13:41:50;;;;;;;39.13;26.60;;;;;;;12.41;100.00;68147.44;4914368;29;20624;-83
2022/10/20 13:44:38;;;;;;;38.78;24.10;;;;;;;12.42;100.00;68148.56;4909178;29;20095;-83
2022/10/20 13:47:29;;;;;;;39.50;25.37;;;;;;;12.41;100.00;68147.44;4910917;29;20043;-83
2022/10/20 13:50:24;;;;;;;39.65;26.45;;;;;;;;;;4924127;29;20048;-82
2022/10/20 13:52:53;;;;;;;37.55;25.25;;;;;;;12.44;100.00;68155.06;4903335;29;20139;-84
2022/10/20 13:55:23;;;;;;;40.20;26.25;;;;;;;12.45;100.00;68150.84;4910699;29;20103;-83
2022/10/20 13:58:06;;;;;;;34.97;23.60;;;;;;;12.48;100.00;68154.25;4914206;29;20675;-83
2022/10/20 14:00:34;;;;;;;37.40;24.90;;;;;;;12.48;100.00;68151.59;4915092;29;20526;-83
2022/10/20 14:03:02;;;;;;;38.67;23.85;;;;;;;12.50;100.00;68154.44;4913253;29;20054;-83
2022/10/20 14:05:35;;;;;;;38.20;24.92;;;;;;;12.52;100.00;68158.81;4905875;29;20045;-83
2022/10/20 14:08:00;;;;;;;39.30;22.75;;;;;;;12.54;100.00;68161.06;4907329;29;20033;-82
2022/10/20 14:10:42;;;;;;;40.28;28.27;;;;;;;12.59;100.00;68164.66;4912749;29;20948;-83
2022/10/20 14:13:12;;;;;;;37.10;24.85;;;;;;;12.62;100.00;68167.50;4909183;29;20044;-83
2022/10/20 14:15:53;;;;;;;37.90;25.70;;;;;;;12.71;100.00;68180.38;4909313;29;20092;-82
2022/10/20 14:18:28;;;;;;;38.35;24.52;;;;;;;12.78;100.00;68188.34;4914632;29;20043;-82
2022/10/20 14:20:59;;;;;;;38.88;25.02;;;;;;;;;;4911413;29;20141;-82
2022/10/20 14:23:27;;;;;;;35.75;24.95;;;;;;;12.92;100.00;68198.38;4909730;29;20040;-82
2022/10/20 14:25:53;;;;;;;39.10;26.25;;;;;;;13.01;100.00;68210.69;4900979;29;20052;-82
2022/10/20 14:28:20;;;;;;;36.58;25.15;;;;;;;13.05;100.00;68218.47;4902022;29;20048;-82
2022/10/20 14:30:50;;;;;;;36.78;25.98;;;;;;;13.14;100.00;68225.47;4907130;29;20110;-82
2022/10/20 14:33:16;;;;;;;36.03;25.13;;;;;;;13.24;100.00;68238.97;4908338;29;20047;-82
2022/10/20 14:35:43;;;;;;;35.05;26.33;;;;;;;;;;4907254;29;20508;-82
2022/10/20 14:38:21;;;;;;;34.03;26.17;;;;;;;;;;4908167;29;20480;-82
2022/10/20 14:40:52;;;;;;;34.75;24.73;;;;;;;13.30;100.00;68243.69;4907629;29;20165;-82
2022/10/20 14:43:41;;;;;;;36.30;23.27;;;;;;;13.40;100.00;68256.59;4906812;29;20091;-82
2022/10/20 14:46:09;;;;;;;38.67;26.17;;;;;;;13.58;100.00;68276.50;4904950;29;20099;-82
2022/10/20 14:48:40;;;;;;;36.53;24.85;;;;;;;13.87;100.00;68308.94;4906435;29;20044;-83
2022/10/20 14:51:29;;;;;;;35.60;22.85;;;;;;;14.11;100.00;68333.56;4908888;29;20048;-82
2022/10/20 14:54:19;;;;;;;31.95;23.48;;;;;;;14.22;100.00;68348.75;4901491;29;20036;-82
2022/10/20 14:56:47;;;;;;;27.20;20.15;;;;;;;14.31;100.00;68355.75;4905448;29;20535;-82
2022/10/20 14:59:15;;;;;;;25.37;18.97;;;;;;;14.45;100.00;68373.81;4906280;29;20048;-82
2022/10/20 15:01:53;;;;;;;29.48;20.02;;;;;;;14.59;100.00;68387.09;4905568;29;20052;-82
2022/10/20 15:04:26;;;;;;;27.90;19.33;;;;;;;14.68;100.00;68398.88;4905466;29;20040;-82
2022/10/20 15:07:22;;;;;;;26.23;18.48;;;;;;;14.77;100.00;68403.75;4906519;29;20043;-82
2022/10/20 15:09:51;;;;;;;27.42;16.30;;;;;;;14.81;100.00;68410.97;4903771;29;20044;-82
2022/10/20 15:12:18;;;;;;;25.23;17.05;;;;;;;14.85;100.00;68418.22;4903720;29;20676;-82
2022/10/20 15:14:47;;;;;;;25.27;17.17;;;;;;;14.79;100.00;68411.41;4905604;29;20048;-82
2022/10/20 15:17:41;;;;;;;22.55;15.77;;;;;;;14.72;100.00;68403.41;4905490;29;20047;-82
2022/10/20 15:20:28;;;;;;;23.85;15.93;;;;;;;14.75;100.00;68406.81;4906771;29;20044;-82
2022/10/20 15:22:55;;;;;;;26.75;16.70;;;;;;;14.75;100.00;68404.72;4918740;29;20076;-82
2022/10/20 15:25:20;;;;;;;24.00;16.33;;;;;;;14.78;100.00;68410.81;4909960;29;20043;-83
2022/10/20 15:27:46;;;;;;;23.92;16.02;;;;;;;14.79;100.00;68408.72;4912856;29;20056;-82
2022/10/20 15:30:20;;;;;;;21.55;15.85;;;;;;;14.78;100.00;68410.25;4913386;29;20054;-82
2022/10/20 15:32:45;;;;;;;22.85;16.90;;;;;;;14.80;100.00;68410.41;4920025;29;20114;-83
2022/10/20 15:35:17;;;;;;;20.80;15.30;;;;;;;14.80;100.00;68410.41;4911886;29;20056;-83
2022/10/20 15:37:43;;;;;;;24.08;15.85;;;;;;;14.75;100.00;68407.41;4913354;29;20071;-83
2022/10/20 15:40:09;;;;;;;20.98;16.42;;;;;;;14.76;100.00;68405.28;4912398;29;20407;-83
2022/10/20 15:42:34;;;;;;;19.88;16.20;;;;;;;14.78;100.00;68407.56;4911733;29;20055;-83
2022/10/20 15:44:59;;;;;;;25.63;18.17;;;;;;;14.76;100.00;68407.97;5044019;23;20048;-86
2022/10/20 15:47:25;;;;;;;21.45;16.48;;;;;;;14.72;100.00;68403.97;4909296;28;20044;-86
2022/10/20 15:49:50;;;;;;;23.77;17.00;;;;;;;14.68;100.00;68399.44;4917972;29;20162;-86
2022/10/20 15:52:16;;;;;;;23.60;15.48;;;;;;;14.63;100.00;68394.31;4933886;29;20040;-86
2022/10/20 15:54:42;;;;;;;23.08;16.80;;;;;;;14.59;100.00;68389.75;4930584;23;20511;-85
2022/10/20 15:57:10;;;;;;;24.67;17.73;;;;;;;14.52;100.00;68379.09;4923805;29;20033;-86
2022/10/20 20:50:02;;;;;;;;;;;;;;;;;;;;;
2022/10/20 20:52:44;;;;;;;;;;;;;;;;;;;;;
2022/10/20 20:55:19;;;;;;;49.00;29.17;;;;;;;11.83;100.00;68082.66;4883537;29;20112;-90
2022/10/20 20:57:58;;;;;;;46.60;30.73;;;;;;;11.85;100.00;68084.34;4848701;29;20046;-86
2022/10/20 21:21:18;;;;;;;46.88;29.75;;;;;;;11.85;100.00;68084.94;5800449;23;20920;-87
2022/10/20 21:23:46;;;;;;;45.50;29.73;;;;;;;11.85;100.00;68084.94;4855273;29;20049;-87
2022/10/20 21:26:24;;;;;;;45.75;29.70;;;;;;;11.85;100.00;68084.34;4825953;29;20061;-87
2022/10/20 21:28:55;;;;;;;48.88;31.52;;;;;;;;;;4856944;29;20092;-87
2022/10/20 21:31:30;;;;;;;46.38;30.35;;;;;;;11.86;100.00;68080.75;4853188;29;20050;-86
2022/10/20 21:44:45;;;;;;;;;;;;;;;;;;5430610;23;20059;-87
2022/10/20 21:47:22;;;;;;;50.10;28.58;;;;;;;11.61;100.00;68057.66;4882325;29;19920;-88
2022/10/20 21:49:50;;;;;;;42.78;28.80;;;;;;;;;;4858996;29;20059;-88
2022/10/20 21:52:37;;;;;;;48.30;30.13;;;;;;;11.56;100.00;68051.97;4868633;29;20067;-86
2022/10/20 21:55:14;;;;;;;45.83;27.88;;;;;;;11.48;100.00;68044.03;4855897;29;20037;-88
2022/10/20 21:57:58;;;;;;;43.78;26.67;;;;;;;11.43;100.00;68043.13;4825315;29;20037;-87
2022/10/20 22:00:24;;;;;;;47.25;30.17;;;;;;;;;;4810513;29;20101;-89
2022/10/20 22:02:49;;;;;;;45.95;28.67;;;;;;;;;;4802802;29;20125;-90
2022/10/20 22:05:23;;;;;;;44.75;29.98;;;;;;;11.36;100.00;68029.84;4802693;29;20074;-89
2022/10/20 22:07:54;;;;;;;48.15;29.23;;;;;;;11.36;100.00;68027.19;4783620;29;20038;-87
2022/10/20 22:10:22;;;;;;;43.67;29.13;;;;;;;;;;4799143;29;20045;-88
2022/10/20 22:12:50;;;;;;;47.78;30.52;;;;;;;11.32;100.00;68025.88;4809006;29;20081;-88
2022/10/20 22:15:18;;;;;;;49.73;28.47;;;;;;;11.23;100.00;68015.66;4785860;29;20482;-88
2022/10/20 22:17:47;;;;;;;48.72;29.60;;;;;;;11.19;100.00;68011.09;4799134;29;20050;-90
2022/10/20 22:20:12;;;;;;;44.97;28.88;;;;;;;11.13;100.00;68002.19;4774349;29;20046;-86
2022/10/20 22:22:53;;;;;;;41.65;25.67;;;;;;;11.07;100.00;68003.94;4721287;29;20511;-88
2022/10/20 22:25:20;;;;;;;44.72;27.05;;;;;;;11.07;100.00;67998.63;4735071;29;20063;-88
2022/10/20 22:28:10;;;;;;;45.22;28.05;;;;;;;11.04;100.00;67994.66;4740150;30;20051;-90
2022/10/20 22:30:38;;;;;;;50.45;29.05;;;;;;;11.00;100.00;67990.13;4723048;30;20110;-86
2022/10/20 22:33:14;;;;;;;49.20;31.13;;;;;;;11.09;100.00;67999.75;4724949;30;20055;-87
2022/10/20 22:35:44;;;;;;;47.70;29.98;;;;;;;11.02;100.00;67992.38;4737178;30;20091;-85
2022/10/20 22:38:14;;;;;;;44.35;30.13;;;;;;;10.94;100.00;67983.88;4726252;30;20404;-86
2022/10/20 22:40:40;;;;;;;47.03;29.45;;;;;;;10.87;100.00;67970.59;4704765;30;20049;-86
2022/10/20 22:43:23;;;;;;;50.25;32.30;;;;;;;10.91;100.00;67979.91;4706195;30;20060;-87
2022/10/20 22:46:01;;;;;;;;;;;;;;;;;;;;;
2022/10/20 22:48:37;;;;;;;42.13;28.42;;;;;;;10.76;100.00;67963.44;4705128;30;20051;-89
2022/10/20 22:51:03;;;;;;;45.45;29.13;;;;;;;;;;4692208;30;20497;-87
2022/10/20 22:53:37;;;;;;;47.55;32.95;;;;;;;;;;4718767;29;20685;-87
2022/10/20 22:56:06;;;;;;;46.20;30.23;;;;;;;;;;4749674;29;20046;-87
2022/10/20 22:58:34;;;;;;;48.75;31.65;;;;;;;10.71;100.00;67963.09;4797970;29;20035;-87
2022/10/20 23:01:04;;;;;;;50.63;30.60;;;;;;;10.69;100.00;67961.38;4783371;29;20055;-87
2022/10/20 23:03:39;;;;;;;47.05;29.45;;;;;;;;;;4813251;29;20073;-87
2022/10/20 23:06:12;;;;;;;50.15;31.85;;;;;;;10.70;100.00;67961.94;4815005;29;20129;-87
2022/10/20 23:08:41;;;;;;;45.22;30.17;;;;;;;10.73;100.00;67957.94;4785619;29;20058;-86
2022/10/20 23:11:07;;;;;;;50.45;32.72;;;;;;;;;;4772582;29;20516;-87
2022/10/20 23:13:35;;;;;;;42.58;28.27;;;;;;;10.64;100.00;67950.38;4799356;29;20050;-87
2022/10/20 23:16:00;;;;;;;45.60;29.67;;;;;;;10.55;100.00;67938.06;4786879;29;20054;-87
2022/10/20 23:18:26;;;;;;;47.25;31.02;;;;;;;10.53;100.00;67943.81;4796204;29;20046;-87
2022/10/20 23:20:52;;;;;;;48.20;32.00;;;;;;;10.52;100.00;67934.66;4780715;29;20058;-87
2022/10/20 23:23:17;;;;;;;51.42;30.88;;;;;;;10.54;100.00;67939.03;4793039;29;20075;-87
2022/10/20 23:25:42;;;;;;;48.13;32.55;;;;;;;;;;4786006;29;20471;-86
2022/10/20 23:28:08;;;;;;;54.60;33.30;;;;;;;10.63;100.00;67948.69;4781598;29;20091;-87
2022/10/20 23:30:37;;;;;;;49.08;32.33;;;;;;;10.62;100.00;67948.13;4773087;29;20623;-87
2022/10/20 23:33:03;;;;;;;50.67;32.50;;;;;;;10.65;100.00;67948.88;4852334;29;20042;-87
2022/10/20 23:35:28;;;;;;;46.95;31.52;;;;;;;10.79;100.00;67966.84;4882387;29;20053;-87
2022/10/20 23:37:54;;;;;;;47.60;32.35;;;;;;;;;;4849005;29;20053;-87
2022/10/20 23:40:24;;;;;;;52.03;33.10;;;;;;;10.82;100.00;67967.59;4790172;29;20170;-87
2022/10/20 23:42:50;;;;;;;48.65;30.08;;;;;;;;;;4831140;29;20059;-87
2022/10/20 23:45:24;;;;;;;48.50;30.80;;;;;;;10.78;100.00;67963.03;4818418;29;20050;-87